Terminal Aerodrome Forecast
Issued by NWS Charleston, WV

Current Version | Previous Version | Text Only | Print | Product List | Glossary Off
Versions: 1 2 3 4 5 6 7 8 9 10 11 12 13 14 15 16 17 18 19 20 21 22 23 24 25 26 27 28 29 30

000
FTUS41 KRLX 222012 AAA
TAFEKN
TAF AMD
KEKN 222012Z 2220/2318 24008KT P6SM SCT060
     FM222100 24009KT P6SM VCTS SCT060CB
      TEMPO 2223/2302 2SM TSRA BR OVC025CB
     FM230200 32006KT 3SM +SHRA BR VCTS OVC003CB
     FM230500 26004KT 2SM SHRA BR OVC008
     FM230700 VRB03KT P6SM OVC008
     FM231600 31004KT P6SM SCT035=

USA.gov is the U.S. government's official web portal to all federal, state and local government web resources and services.